FMEE/RUN METAR and TAF weather

Enter ICAO airport designator
Station Type Date Time Source
FMEE METAR 2020/04/07 04:00 UTC NOAA

FMEE 070400Z AUTO 13014KT 9999 FEW052/// BKN066/// ///CB 26/21 Q1017 TEMPO 4500 SHRA BECMG FEW026


Station Type Date Time Source
FMEE Decoded METAR 2020/04/07 04:00 UTC NOAA

Saint-Denis / Gillot, Reunion (FMEE) 20-53S 055-31E 25M
Apr 07, 2020 - 12:00 AM EDT / 2020.04.07 0400 UTC
Wind: from the SE (130 degrees) at 16 MPH (14 KT):0
Visibility: greater than 7 mile(s):0
Sky conditions: mostly cloudy
Weather: Cumulonimbus clouds observed
Temperature: 78 F (26 C)
Dew Point: 69 F (21 C)
Relative Humidity: 73%
Pressure (altimeter): 30.03 in. Hg (1017 hPa)
ob: FMEE 070400Z AUTO 13014KT 9999 FEW052/// BKN066/// ///CB 26/21 Q1017 TEMPO 4500 SHRA BECMG FEW026
cycle: 4

Station Type Date Time Source
FMEE TAF 2020/04/07 00:00 UTC NOAA

TAF FMEE 062300Z 0700/0806 11015KT 9999 FEW026 PROB30
TEMPO 0700/0705 4500 SHRA

Example: see airport list